sensor_id;sensor_type;location;lat;lon;timestamp;P1;durP1;ratioP1;P2;durP2;ratioP2
73130;SDS011;64204;13.766;100.702;2023-12-14T00:01:36;22.98;;;11.82;;
73130;SDS011;64204;13.766;100.702;2023-12-14T00:04:05;21.50;;;12.23;;
73130;SDS011;64204;13.766;100.702;2023-12-14T00:06:32;19.85;;;10.88;;
73130;SDS011;64204;13.766;100.702;2023-12-14T00:08:58;20.65;;;11.25;;
73130;SDS011;64204;13.766;100.702;2023-12-14T00:11:25;15.32;;;10.13;;
73130;SDS011;64204;13.766;100.702;2023-12-14T00:13:51;23.90;;;12.18;;
73130;SDS011;64204;13.766;100.702;2023-12-14T00:16:17;23.85;;;11.57;;
73130;SDS011;64204;13.766;100.702;2023-12-14T00:18:44;20.50;;;11.02;;
73130;SDS011;64204;13.766;100.702;2023-12-14T00:21:10;19.95;;;11.98;;
73130;SDS011;64204;13.766;100.702;2023-12-14T00:23:37;23.55;;;12.13;;
73130;SDS011;64204;13.766;100.702;2023-12-14T00:26:03;17.20;;;10.80;;
73130;SDS011;64204;13.766;100.702;2023-12-14T00:28:29;18.60;;;10.43;;
73130;SDS011;64204;13.766;100.702;2023-12-14T00:30:56;20.20;;;10.85;;
73130;SDS011;64204;13.766;100.702;2023-12-14T00:33:22;17.50;;;10.35;;
73130;SDS011;64204;13.766;100.702;2023-12-14T00:35:49;18.58;;;11.07;;
73130;SDS011;64204;13.766;100.702;2023-12-14T00:38:15;20.25;;;10.75;;
73130;SDS011;64204;13.766;100.702;2023-12-14T00:40:41;18.35;;;10.25;;
73130;SDS011;64204;13.766;100.702;2023-12-14T00:43:08;18.85;;;10.13;;
73130;SDS011;64204;13.766;100.702;2023-12-14T00:45:34;17.35;;;10.43;;
73130;SDS011;64204;13.766;100.702;2023-12-14T00:48:00;18.05;;;9.90;;
73130;SDS011;64204;13.766;100.702;2023-12-14T00:50:27;13.13;;;8.70;;
73130;SDS011;64204;13.766;100.702;2023-12-14T00:52:53;14.35;;;9.15;;
73130;SDS011;64204;13.766;100.702;2023-12-14T00:55:20;15.60;;;9.93;;
73130;SDS011;64204;13.766;100.702;2023-12-14T00:57:46;14.77;;;9.27;;
73130;SDS011;64204;13.766;100.702;2023-12-14T01:00:13;14.25;;;8.35;;
73130;SDS011;64204;13.766;100.702;2023-12-14T01:02:39;15.30;;;8.77;;
73130;SDS011;64204;13.766;100.702;2023-12-14T01:05:06;15.52;;;8.63;;
73130;SDS011;64204;13.766;100.702;2023-12-14T01:07:33;13.23;;;8.10;;
73130;SDS011;64204;13.766;100.702;2023-12-14T01:09:59;13.43;;;8.20;;
73130;SDS011;64204;13.766;100.702;2023-12-14T01:12:26;15.23;;;9.65;;
73130;SDS011;64204;13.766;100.702;2023-12-14T01:14:52;14.98;;;9.65;;
73130;SDS011;64204;13.766;100.702;2023-12-14T01:17:18;13.27;;;8.70;;
73130;SDS011;64204;13.766;100.702;2023-12-14T01:19:45;13.93;;;8.50;;
73130;SDS011;64204;13.766;100.702;2023-12-14T01:22:11;15.68;;;9.30;;
73130;SDS011;64204;13.766;100.702;2023-12-14T01:24:41;13.65;;;8.07;;
73130;SDS011;64204;13.766;100.702;2023-12-14T01:27:10;12.93;;;8.32;;
73130;SDS011;64204;13.766;100.702;2023-12-14T01:29:39;13.70;;;8.85;;
73130;SDS011;64204;13.766;100.702;2023-12-14T01:32:05;17.13;;;8.98;;
73130;SDS011;64204;13.766;100.702;2023-12-14T01:34:35;13.05;;;7.93;;
73130;SDS011;64204;13.766;100.702;2023-12-14T01:37:07;18.13;;;8.80;;
73130;SDS011;64204;13.766;100.702;2023-12-14T01:39:34;14.68;;;9.50;;
73130;SDS011;64204;13.766;100.702;2023-12-14T01:42:03;17.65;;;9.02;;
73130;SDS011;64204;13.766;100.702;2023-12-14T01:44:29;17.48;;;9.13;;
73130;SDS011;64204;13.766;100.702;2023-12-14T01:46:56;16.30;;;9.10;;
73130;SDS011;64204;13.766;100.702;2023-12-14T01:49:22;15.40;;;8.88;;
73130;SDS011;64204;13.766;100.702;2023-12-14T01:51:52;18.33;;;9.32;;
73130;SDS011;64204;13.766;100.702;2023-12-14T01:54:18;16.83;;;9.13;;
73130;SDS011;64204;13.766;100.702;2023-12-14T01:56:44;15.52;;;9.43;;
73130;SDS011;64204;13.766;100.702;2023-12-14T01:59:11;17.90;;;9.15;;
73130;SDS011;64204;13.766;100.702;2023-12-14T02:01:42;13.48;;;8.60;;
73130;SDS011;64204;13.766;100.702;2023-12-14T02:04:10;14.70;;;8.82;;
73130;SDS011;64204;13.766;100.702;2023-12-14T02:06:42;14.55;;;8.90;;
73130;SDS011;64204;13.766;100.702;2023-12-14T02:09:09;12.65;;;8.02;;
73130;SDS011;64204;13.766;100.702;2023-12-14T02:11:36;18.00;;;8.90;;
73130;SDS011;64204;13.766;100.702;2023-12-14T02:14:05;19.65;;;8.25;;
73130;SDS011;64204;13.766;100.702;2023-12-14T02:16:32;13.90;;;8.07;;
73130;SDS011;64204;13.766;100.702;2023-12-14T02:18:59;11.63;;;8.30;;
73130;SDS011;64204;13.766;100.702;2023-12-14T02:21:25;15.55;;;7.90;;
73130;SDS011;64204;13.766;100.702;2023-12-14T02:23:52;14.02;;;7.65;;
73130;SDS011;64204;13.766;100.702;2023-12-14T02:26:18;13.52;;;7.53;;
73130;SDS011;64204;13.766;100.702;2023-12-14T02:28:44;15.43;;;8.15;;
73130;SDS011;64204;13.766;100.702;2023-12-14T02:31:14;13.52;;;8.07;;
73130;SDS011;64204;13.766;100.702;2023-12-14T02:33:40;14.13;;;8.02;;
73130;SDS011;64204;13.766;100.702;2023-12-14T02:36:07;14.30;;;8.20;;
73130;SDS011;64204;13.766;100.702;2023-12-14T02:38:33;12.98;;;8.07;;
73130;SDS011;64204;13.766;100.702;2023-12-14T02:41:00;12.88;;;7.30;;
73130;SDS011;64204;13.766;100.702;2023-12-14T02:43:26;13.52;;;7.68;;
73130;SDS011;64204;13.766;100.702;2023-12-14T02:45:52;10.15;;;6.80;;
73130;SDS011;64204;13.766;100.702;2023-12-14T02:48:20;13.80;;;7.68;;
73130;SDS011;64204;13.766;100.702;2023-12-14T02:50:47;11.35;;;7.65;;
73130;SDS011;64204;13.766;100.702;2023-12-14T02:53:13;12.02;;;6.85;;
73130;SDS011;64204;13.766;100.702;2023-12-14T02:55:39;13.77;;;7.72;;
73130;SDS011;64204;13.766;100.702;2023-12-14T02:58:06;10.02;;;6.82;;
73130;SDS011;64204;13.766;100.702;2023-12-14T03:00:32;11.98;;;7.10;;
73130;SDS011;64204;13.766;100.702;2023-12-14T03:02:59;11.50;;;7.63;;
73130;SDS011;64204;13.766;100.702;2023-12-14T03:05:25;10.63;;;7.10;;
73130;SDS011;64204;13.766;100.702;2023-12-14T03:07:52;12.82;;;7.10;;
73130;SDS011;64204;13.766;100.702;2023-12-14T03:10:18;10.48;;;6.45;;
73130;SDS011;64204;13.766;100.702;2023-12-14T03:12:48;11.10;;;6.72;;
73130;SDS011;64204;13.766;100.702;2023-12-14T03:15:16;9.82;;;6.13;;
73130;SDS011;64204;13.766;100.702;2023-12-14T03:17:44;12.45;;;6.97;;
73130;SDS011;64204;13.766;100.702;2023-12-14T03:20:10;8.02;;;5.97;;
73130;SDS011;64204;13.766;100.702;2023-12-14T03:22:39;11.05;;;7.20;;
73130;SDS011;64204;13.766;100.702;2023-12-14T03:25:06;10.90;;;6.53;;
73130;SDS011;64204;13.766;100.702;2023-12-14T03:27:35;12.68;;;7.20;;
73130;SDS011;64204;13.766;100.702;2023-12-14T03:30:01;8.85;;;6.53;;
73130;SDS011;64204;13.766;100.702;2023-12-14T03:32:33;9.75;;;6.90;;
73130;SDS011;64204;13.766;100.702;2023-12-14T03:34:59;11.52;;;6.85;;
73130;SDS011;64204;13.766;100.702;2023-12-14T03:37:26;11.38;;;6.90;;
73130;SDS011;64204;13.766;100.702;2023-12-14T03:39:55;9.15;;;6.47;;
73130;SDS011;64204;13.766;100.702;2023-12-14T03:42:22;11.27;;;7.28;;
73130;SDS011;64204;13.766;100.702;2023-12-14T03:44:48;12.10;;;6.55;;
73130;SDS011;64204;13.766;100.702;2023-12-14T03:47:15;12.27;;;7.20;;
73130;SDS011;64204;13.766;100.702;2023-12-14T03:49:41;10.95;;;6.50;;
73130;SDS011;64204;13.766;100.702;2023-12-14T03:52:08;10.40;;;6.55;;
73130;SDS011;64204;13.766;100.702;2023-12-14T03:54:35;10.75;;;6.85;;
73130;SDS011;64204;13.766;100.702;2023-12-14T03:57:01;11.27;;;6.88;;
73130;SDS011;64204;13.766;100.702;2023-12-14T03:59:27;10.18;;;6.95;;
73130;SDS011;64204;13.766;100.702;2023-12-14T04:01:54;9.98;;;6.70;;
73130;SDS011;64204;13.766;100.702;2023-12-14T04:04:20;11.30;;;6.55;;
73130;SDS011;64204;13.766;100.702;2023-12-14T04:06:47;10.57;;;5.95;;
73130;SDS011;64204;13.766;100.702;2023-12-14T04:09:13;9.88;;;5.90;;
73130;SDS011;64204;13.766;100.702;2023-12-14T04:11:39;8.60;;;5.75;;
73130;SDS011;64204;13.766;100.702;2023-12-14T04:14:06;14.27;;;7.38;;
73130;SDS011;64204;13.766;100.702;2023-12-14T04:16:32;13.23;;;6.65;;
73130;SDS011;64204;13.766;100.702;2023-12-14T04:18:59;9.85;;;6.70;;
73130;SDS011;64204;13.766;100.702;2023-12-14T04:21:25;8.25;;;6.00;;
73130;SDS011;64204;13.766;100.702;2023-12-14T04:23:54;10.82;;;6.00;;
73130;SDS011;64204;13.766;100.702;2023-12-14T04:26:24;9.98;;;6.53;;
73130;SDS011;64204;13.766;100.702;2023-12-14T04:28:51;10.52;;;6.40;;
73130;SDS011;64204;13.766;100.702;2023-12-14T04:31:17;11.02;;;6.50;;
73130;SDS011;64204;13.766;100.702;2023-12-14T04:33:44;9.70;;;7.55;;
73130;SDS011;64204;13.766;100.702;2023-12-14T04:36:10;9.88;;;6.25;;
73130;SDS011;64204;13.766;100.702;2023-12-14T04:38:37;10.68;;;6.03;;
73130;SDS011;64204;13.766;100.702;2023-12-14T04:41:03;8.15;;;5.75;;
73130;SDS011;64204;13.766;100.702;2023-12-14T04:43:30;11.63;;;5.97;;
73130;SDS011;64204;13.766;100.702;2023-12-14T04:45:57;10.32;;;6.22;;
73130;SDS011;64204;13.766;100.702;2023-12-14T04:48:24;8.38;;;6.13;;
73130;SDS011;64204;13.766;100.702;2023-12-14T04:50:50;9.43;;;6.47;;
73130;SDS011;64204;13.766;100.702;2023-12-14T04:53:16;11.10;;;6.40;;
73130;SDS011;64204;13.766;100.702;2023-12-14T04:55:43;10.05;;;6.53;;
73130;SDS011;64204;13.766;100.702;2023-12-14T04:58:12;9.85;;;6.38;;
73130;SDS011;64204;13.766;100.702;2023-12-14T05:00:38;10.90;;;6.25;;
73130;SDS011;64204;13.766;100.702;2023-12-14T05:03:05;10.88;;;5.88;;
73130;SDS011;64204;13.766;100.702;2023-12-14T05:05:31;9.90;;;7.07;;
73130;SDS011;64204;13.766;100.702;2023-12-14T05:07:57;8.80;;;6.20;;
73130;SDS011;64204;13.766;100.702;2023-12-14T05:10:24;9.98;;;6.57;;
73130;SDS011;64204;13.766;100.702;2023-12-14T05:12:50;12.55;;;6.55;;
73130;SDS011;64204;13.766;100.702;2023-12-14T05:15:17;10.05;;;6.50;;
73130;SDS011;64204;13.766;100.702;2023-12-14T05:17:45;11.45;;;6.28;;
73130;SDS011;64204;13.766;100.702;2023-12-14T05:20:11;9.32;;;6.20;;
73130;SDS011;64204;13.766;100.702;2023-12-14T05:22:38;10.73;;;6.05;;
73130;SDS011;64204;13.766;100.702;2023-12-14T05:25:04;10.13;;;6.40;;
73130;SDS011;64204;13.766;100.702;2023-12-14T05:27:31;11.77;;;5.82;;
73130;SDS011;64204;13.766;100.702;2023-12-14T05:29:57;8.30;;;5.45;;
73130;SDS011;64204;13.766;100.702;2023-12-14T05:32:24;11.63;;;5.53;;
73130;SDS011;64204;13.766;100.702;2023-12-14T05:34:50;9.38;;;4.90;;
73130;SDS011;64204;13.766;100.702;2023-12-14T05:37:16;9.43;;;6.35;;
73130;SDS011;64204;13.766;100.702;2023-12-14T05:39:43;9.40;;;6.05;;
73130;SDS011;64204;13.766;100.702;2023-12-14T05:42:10;10.20;;;5.78;;
73130;SDS011;64204;13.766;100.702;2023-12-14T05:44:37;7.88;;;6.05;;
73130;SDS011;64204;13.766;100.702;2023-12-14T05:47:03;9.20;;;5.63;;
73130;SDS011;64204;13.766;100.702;2023-12-14T05:49:30;9.10;;;6.05;;
73130;SDS011;64204;13.766;100.702;2023-12-14T05:51:58;8.93;;;5.82;;
73130;SDS011;64204;13.766;100.702;2023-12-14T05:54:25;10.63;;;5.57;;
73130;SDS011;64204;13.766;100.702;2023-12-14T05:56:52;8.45;;;5.28;;
73130;SDS011;64204;13.766;100.702;2023-12-14T05:59:18;10.30;;;5.97;;
73130;SDS011;64204;13.766;100.702;2023-12-14T06:01:47;10.68;;;6.53;;
73130;SDS011;64204;13.766;100.702;2023-12-14T06:04:13;11.07;;;6.05;;
73130;SDS011;64204;13.766;100.702;2023-12-14T06:06:39;7.50;;;5.38;;
73130;SDS011;64204;13.766;100.702;2023-12-14T06:09:06;9.63;;;5.78;;
73130;SDS011;64204;13.766;100.702;2023-12-14T06:11:33;10.50;;;6.38;;
73130;SDS011;64204;13.766;100.702;2023-12-14T06:13:59;10.30;;;5.97;;
73130;SDS011;64204;13.766;100.702;2023-12-14T06:16:26;9.13;;;6.25;;
73130;SDS011;64204;13.766;100.702;2023-12-14T06:18:52;10.30;;;6.55;;
73130;SDS011;64204;13.766;100.702;2023-12-14T06:21:18;10.98;;;5.55;;
73130;SDS011;64204;13.766;100.702;2023-12-14T06:23:45;10.73;;;5.85;;
73130;SDS011;64204;13.766;100.702;2023-12-14T06:26:11;8.20;;;5.70;;
73130;SDS011;64204;13.766;100.702;2023-12-14T06:28:38;8.63;;;5.43;;
73130;SDS011;64204;13.766;100.702;2023-12-14T06:31:04;10.63;;;6.65;;
73130;SDS011;64204;13.766;100.702;2023-12-14T06:33:31;8.48;;;5.60;;
73130;SDS011;64204;13.766;100.702;2023-12-14T06:35:57;13.25;;;6.07;;
73130;SDS011;64204;13.766;100.702;2023-12-14T06:38:26;10.98;;;6.03;;
73130;SDS011;64204;13.766;100.702;2023-12-14T06:40:53;10.48;;;5.80;;
73130;SDS011;64204;13.766;100.702;2023-12-14T06:43:19;11.32;;;6.25;;
73130;SDS011;64204;13.766;100.702;2023-12-14T06:45:45;10.68;;;5.40;;
73130;SDS011;64204;13.766;100.702;2023-12-14T06:48:12;8.02;;;5.43;;
73130;SDS011;64204;13.766;100.702;2023-12-14T06:50:38;11.35;;;5.70;;
73130;SDS011;64204;13.766;100.702;2023-12-14T06:53:05;9.05;;;5.93;;
73130;SDS011;64204;13.766;100.702;2023-12-14T06:55:31;15.23;;;6.03;;
73130;SDS011;64204;13.766;100.702;2023-12-14T06:57:57;10.10;;;6.03;;
73130;SDS011;64204;13.766;100.702;2023-12-14T07:00:27;8.65;;;6.38;;
73130;SDS011;64204;13.766;100.702;2023-12-14T07:02:54;10.25;;;6.60;;
73130;SDS011;64204;13.766;100.702;2023-12-14T07:05:21;14.77;;;6.85;;
73130;SDS011;64204;13.766;100.702;2023-12-14T07:07:47;9.32;;;6.35;;
73130;SDS011;64204;13.766;100.702;2023-12-14T07:10:14;8.90;;;5.68;;
73130;SDS011;64204;13.766;100.702;2023-12-14T07:12:40;10.07;;;6.25;;
73130;SDS011;64204;13.766;100.702;2023-12-14T07:15:07;8.82;;;6.15;;
73130;SDS011;64204;13.766;100.702;2023-12-14T07:17:33;10.73;;;5.20;;
73130;SDS011;64204;13.766;100.702;2023-12-14T07:20:00;9.50;;;5.60;;
73130;SDS011;64204;13.766;100.702;2023-12-14T07:22:26;12.13;;;6.35;;
73130;SDS011;64204;13.766;100.702;2023-12-14T07:24:53;10.23;;;6.35;;
73130;SDS011;64204;13.766;100.702;2023-12-14T07:27:20;9.00;;;5.82;;
73130;SDS011;64204;13.766;100.702;2023-12-14T07:29:46;8.85;;;6.28;;
73130;SDS011;64204;13.766;100.702;2023-12-14T07:32:12;12.00;;;6.47;;
73130;SDS011;64204;13.766;100.702;2023-12-14T07:34:42;10.23;;;6.22;;
73130;SDS011;64204;13.766;100.702;2023-12-14T07:37:09;9.85;;;5.85;;
73130;SDS011;64204;13.766;100.702;2023-12-14T07:39:37;6.50;;;5.25;;
73130;SDS011;64204;13.766;100.702;2023-12-14T07:42:03;8.88;;;5.00;;
73130;SDS011;64204;13.766;100.702;2023-12-14T07:44:31;8.10;;;5.47;;
73130;SDS011;64204;13.766;100.702;2023-12-14T07:47:01;9.05;;;5.43;;
73130;SDS011;64204;13.766;100.702;2023-12-14T07:49:27;11.05;;;6.00;;
73130;SDS011;64204;13.766;100.702;2023-12-14T07:51:54;8.48;;;5.38;;
73130;SDS011;64204;13.766;100.702;2023-12-14T07:54:21;10.23;;;5.05;;
73130;SDS011;64204;13.766;100.702;2023-12-14T07:56:48;7.05;;;5.03;;
73130;SDS011;64204;13.766;100.702;2023-12-14T07:59:14;9.25;;;5.53;;
73130;SDS011;64204;13.766;100.702;2023-12-14T08:01:41;6.80;;;4.88;;
73130;SDS011;64204;13.766;100.702;2023-12-14T08:04:07;10.85;;;5.65;;
73130;SDS011;64204;13.766;100.702;2023-12-14T08:06:36;8.75;;;4.95;;
73130;SDS011;64204;13.766;100.702;2023-12-14T08:09:04;7.97;;;5.22;;
73130;SDS011;64204;13.766;100.702;2023-12-14T08:11:31;8.25;;;5.47;;
73130;SDS011;64204;13.766;100.702;2023-12-14T08:13:58;8.82;;;4.90;;
73130;SDS011;64204;13.766;100.702;2023-12-14T08:16:24;9.90;;;4.97;;
73130;SDS011;64204;13.766;100.702;2023-12-14T08:18:51;8.70;;;4.70;;
73130;SDS011;64204;13.766;100.702;2023-12-14T08:21:20;14.57;;;5.95;;
73130;SDS011;64204;13.766;100.702;2023-12-14T08:23:46;8.85;;;5.57;;
73130;SDS011;64204;13.766;100.702;2023-12-14T08:26:13;8.15;;;4.93;;
73130;SDS011;64204;13.766;100.702;2023-12-14T08:28:39;10.48;;;5.18;;
73130;SDS011;64204;13.766;100.702;2023-12-14T08:31:06;9.52;;;5.15;;
73130;SDS011;64204;13.766;100.702;2023-12-14T08:33:33;9.00;;;5.47;;
73130;SDS011;64204;13.766;100.702;2023-12-14T08:36:00;9.18;;;5.80;;
73130;SDS011;64204;13.766;100.702;2023-12-14T08:38:26;10.20;;;5.75;;
73130;SDS011;64204;13.766;100.702;2023-12-14T08:40:53;8.02;;;5.05;;
73130;SDS011;64204;13.766;100.702;2023-12-14T08:43:19;9.43;;;5.65;;
73130;SDS011;64204;13.766;100.702;2023-12-14T08:45:45;8.20;;;5.28;;
73130;SDS011;64204;13.766;100.702;2023-12-14T08:50:39;9.80;;;5.05;;
73130;SDS011;64204;13.766;100.702;2023-12-14T08:53:06;7.50;;;5.00;;
73130;SDS011;64204;13.766;100.702;2023-12-14T08:55:34;10.30;;;4.95;;
73130;SDS011;64204;13.766;100.702;2023-12-14T08:58:00;8.48;;;5.60;;
73130;SDS011;64204;13.766;100.702;2023-12-14T09:00:26;7.78;;;5.40;;
73130;SDS011;64204;13.766;100.702;2023-12-14T09:02:53;9.65;;;5.93;;
73130;SDS011;64204;13.766;100.702;2023-12-14T09:05:19;10.98;;;5.85;;
73130;SDS011;64204;13.766;100.702;2023-12-14T09:07:46;9.75;;;6.57;;
73130;SDS011;64204;13.766;100.702;2023-12-14T09:10:13;8.70;;;6.00;;
73130;SDS011;64204;13.766;100.702;2023-12-14T09:12:39;9.55;;;5.60;;
73130;SDS011;64204;13.766;100.702;2023-12-14T09:15:06;8.07;;;5.10;;
73130;SDS011;64204;13.766;100.702;2023-12-14T09:17:32;8.63;;;4.68;;
73130;SDS011;64204;13.766;100.702;2023-12-14T09:19:59;8.43;;;5.35;;
73130;SDS011;64204;13.766;100.702;2023-12-14T09:22:26;8.50;;;5.18;;
73130;SDS011;64204;13.766;100.702;2023-12-14T09:24:53;8.48;;;5.07;;
73130;SDS011;64204;13.766;100.702;2023-12-14T09:27:19;6.57;;;4.30;;
73130;SDS011;64204;13.766;100.702;2023-12-14T09:29:46;9.55;;;5.15;;
73130;SDS011;64204;13.766;100.702;2023-12-14T09:32:12;9.40;;;5.40;;
73130;SDS011;64204;13.766;100.702;2023-12-14T09:34:39;6.65;;;4.82;;
73130;SDS011;64204;13.766;100.702;2023-12-14T09:37:05;7.72;;;4.90;;
73130;SDS011;64204;13.766;100.702;2023-12-14T09:39:33;8.60;;;5.20;;
73130;SDS011;64204;13.766;100.702;2023-12-14T09:42:06;8.55;;;5.28;;
73130;SDS011;64204;13.766;100.702;2023-12-14T09:47:00;10.50;;;4.80;;
73130;SDS011;64204;13.766;100.702;2023-12-14T09:49:30;7.80;;;4.70;;
73130;SDS011;64204;13.766;100.702;2023-12-14T09:51:56;8.13;;;4.82;;
73130;SDS011;64204;13.766;100.702;2023-12-14T09:54:24;8.93;;;5.07;;
73130;SDS011;64204;13.766;100.702;2023-12-14T09:56:51;9.70;;;5.40;;
73130;SDS011;64204;13.766;100.702;2023-12-14T09:59:21;8.68;;;4.63;;
73130;SDS011;64204;13.766;100.702;2023-12-14T10:01:47;7.07;;;4.80;;
73130;SDS011;64204;13.766;100.702;2023-12-14T10:04:15;7.75;;;4.65;;
73130;SDS011;64204;13.766;100.702;2023-12-14T10:06:43;10.70;;;4.25;;
73130;SDS011;64204;13.766;100.702;2023-12-14T10:09:10;8.43;;;4.25;;
73130;SDS011;64204;13.766;100.702;2023-12-14T10:11:42;11.57;;;5.65;;
73130;SDS011;64204;13.766;100.702;2023-12-14T10:14:22;7.43;;;3.88;;
73130;SDS011;64204;13.766;100.702;2023-12-14T10:16:52;9.63;;;4.70;;
73130;SDS011;64204;13.766;100.702;2023-12-14T10:19:19;7.00;;;4.50;;
73130;SDS011;64204;13.766;100.702;2023-12-14T10:21:47;6.28;;;3.72;;
73130;SDS011;64204;13.766;100.702;2023-12-14T10:24:14;7.20;;;4.00;;
73130;SDS011;64204;13.766;100.702;2023-12-14T10:26:40;7.63;;;4.55;;
73130;SDS011;64204;13.766;100.702;2023-12-14T10:29:07;7.38;;;4.30;;
73130;SDS011;64204;13.766;100.702;2023-12-14T10:31:35;8.45;;;4.25;;
73130;SDS011;64204;13.766;100.702;2023-12-14T10:34:06;6.97;;;4.47;;
73130;SDS011;64204;13.766;100.702;2023-12-14T10:36:32;5.60;;;4.03;;
73130;SDS011;64204;13.766;100.702;2023-12-14T10:39:00;9.10;;;4.22;;
73130;SDS011;64204;13.766;100.702;2023-12-14T10:41:28;9.90;;;4.40;;
73130;SDS011;64204;13.766;100.702;2023-12-14T10:43:57;10.55;;;4.40;;
73130;SDS011;64204;13.766;100.702;2023-12-14T10:46:24;5.35;;;3.63;;
73130;SDS011;64204;13.766;100.702;2023-12-14T10:48:51;8.70;;;4.82;;
73130;SDS011;64204;13.766;100.702;2023-12-14T10:51:18;6.70;;;4.00;;
73130;SDS011;64204;13.766;100.702;2023-12-14T10:53:47;8.80;;;4.28;;
73130;SDS011;64204;13.766;100.702;2023-12-14T10:56:15;5.95;;;3.92;;
73130;SDS011;64204;13.766;100.702;2023-12-14T10:58:52;6.15;;;4.35;;
73130;SDS011;64204;13.766;100.702;2023-12-14T11:01:22;5.95;;;3.60;;
73130;SDS011;64204;13.766;100.702;2023-12-14T11:03:50;8.95;;;4.00;;
73130;SDS011;64204;13.766;100.702;2023-12-14T11:06:21;6.93;;;3.88;;
73130;SDS011;64204;13.766;100.702;2023-12-14T11:08:55;7.43;;;3.88;;
73130;SDS011;64204;13.766;100.702;2023-12-14T11:11:41;6.90;;;4.35;;
73130;SDS011;64204;13.766;100.702;2023-12-14T11:14:11;7.72;;;4.72;;
73130;SDS011;64204;13.766;100.702;2023-12-14T11:16:39;9.38;;;3.88;;
73130;SDS011;64204;13.766;100.702;2023-12-14T11:24:23;8.25;;;5.15;;
73130;SDS011;64204;13.766;100.702;2023-12-14T11:26:51;13.20;;;5.93;;
73130;SDS011;64204;13.766;100.702;2023-12-14T11:29:18;8.88;;;4.55;;
73130;SDS011;64204;13.766;100.702;2023-12-14T11:31:46;9.82;;;4.90;;
73130;SDS011;64204;13.766;100.702;2023-12-14T11:34:13;9.27;;;4.40;;
73130;SDS011;64204;13.766;100.702;2023-12-14T11:36:42;7.32;;;4.68;;
73130;SDS011;64204;13.766;100.702;2023-12-14T11:39:11;9.82;;;5.10;;
73130;SDS011;64204;13.766;100.702;2023-12-14T11:41:37;12.13;;;5.72;;
73130;SDS011;64204;13.766;100.702;2023-12-14T11:44:04;9.57;;;5.80;;
73130;SDS011;64204;13.766;100.702;2023-12-14T11:46:31;10.30;;;5.68;;
73130;SDS011;64204;13.766;100.702;2023-12-14T11:48:57;14.05;;;6.95;;
73130;SDS011;64204;13.766;100.702;2023-12-14T11:51:24;12.00;;;7.28;;
73130;SDS011;64204;13.766;100.702;2023-12-14T11:53:51;11.85;;;7.05;;
73130;SDS011;64204;13.766;100.702;2023-12-14T11:56:18;12.48;;;7.10;;
73130;SDS011;64204;13.766;100.702;2023-12-14T11:58:45;12.15;;;7.32;;
73130;SDS011;64204;13.766;100.702;2023-12-14T12:03:41;13.25;;;5.78;;
73130;SDS011;64204;13.766;100.702;2023-12-14T12:06:24;11.57;;;6.72;;
73130;SDS011;64204;13.766;100.702;2023-12-14T12:08:53;10.93;;;5.95;;
73130;SDS011;64204;13.766;100.702;2023-12-14T12:11:20;11.35;;;6.10;;
73130;SDS011;64204;13.766;100.702;2023-12-14T12:13:51;11.70;;;5.72;;
73130;SDS011;64204;13.766;100.702;2023-12-14T12:16:18;13.25;;;6.18;;
73130;SDS011;64204;13.766;100.702;2023-12-14T12:18:45;11.60;;;6.53;;
73130;SDS011;64204;13.766;100.702;2023-12-14T12:21:11;11.10;;;6.38;;
73130;SDS011;64204;13.766;100.702;2023-12-14T12:23:38;12.27;;;6.22;;
73130;SDS011;64204;13.766;100.702;2023-12-14T12:26:07;10.95;;;5.82;;
73130;SDS011;64204;13.766;100.702;2023-12-14T12:28:34;10.38;;;6.40;;
73130;SDS011;64204;13.766;100.702;2023-12-14T12:31:00;12.73;;;6.68;;
73130;SDS011;64204;13.766;100.702;2023-12-14T12:33:27;11.00;;;6.82;;
73130;SDS011;64204;13.766;100.702;2023-12-14T12:35:54;11.13;;;6.32;;
73130;SDS011;64204;13.766;100.702;2023-12-14T12:38:20;11.55;;;6.43;;
73130;SDS011;64204;13.766;100.702;2023-12-14T12:40:47;12.23;;;7.25;;
73130;SDS011;64204;13.766;100.702;2023-12-14T12:43:13;11.68;;;7.28;;
73130;SDS011;64204;13.766;100.702;2023-12-14T12:45:40;13.20;;;7.28;;
73130;SDS011;64204;13.766;100.702;2023-12-14T12:48:19;13.48;;;7.65;;
73130;SDS011;64204;13.766;100.702;2023-12-14T12:50:52;20.88;;;9.80;;
73130;SDS011;64204;13.766;100.702;2023-12-14T12:53:19;16.90;;;8.48;;
73130;SDS011;64204;13.766;100.702;2023-12-14T12:55:45;21.92;;;9.40;;
73130;SDS011;64204;13.766;100.702;2023-12-14T12:58:12;16.50;;;9.40;;
73130;SDS011;64204;13.766;100.702;2023-12-14T13:00:40;20.60;;;10.60;;
73130;SDS011;64204;13.766;100.702;2023-12-14T13:03:07;20.55;;;12.13;;
73130;SDS011;64204;13.766;100.702;2023-12-14T13:05:35;18.23;;;9.82;;
73130;SDS011;64204;13.766;100.702;2023-12-14T13:08:02;18.83;;;9.77;;
73130;SDS011;64204;13.766;100.702;2023-12-14T13:10:35;12.50;;;7.47;;
73130;SDS011;64204;13.766;100.702;2023-12-14T13:13:04;12.30;;;7.10;;
73130;SDS011;64204;13.766;100.702;2023-12-14T13:15:32;19.02;;;10.38;;
73130;SDS011;64204;13.766;100.702;2023-12-14T13:18:02;18.73;;;10.18;;
73130;SDS011;64204;13.766;100.702;2023-12-14T13:20:31;17.08;;;10.20;;
73130;SDS011;64204;13.766;100.702;2023-12-14T13:22:57;15.80;;;9.13;;
73130;SDS011;64204;13.766;100.702;2023-12-14T13:25:24;15.55;;;8.63;;
73130;SDS011;64204;13.766;100.702;2023-12-14T13:27:51;14.68;;;8.00;;
73130;SDS011;64204;13.766;100.702;2023-12-14T13:30:18;15.55;;;9.02;;
73130;SDS011;64204;13.766;100.702;2023-12-14T13:32:48;21.38;;;10.48;;
73130;SDS011;64204;13.766;100.702;2023-12-14T13:35:15;20.77;;;10.70;;
73130;SDS011;64204;13.766;100.702;2023-12-14T13:37:42;19.77;;;9.60;;
73130;SDS011;64204;13.766;100.702;2023-12-14T13:40:08;16.38;;;9.10;;
73130;SDS011;64204;13.766;100.702;2023-12-14T13:42:35;14.07;;;8.18;;
73130;SDS011;64204;13.766;100.702;2023-12-14T13:45:02;17.80;;;10.07;;
73130;SDS011;64204;13.766;100.702;2023-12-14T13:47:28;20.98;;;10.95;;
73130;SDS011;64204;13.766;100.702;2023-12-14T13:49:55;17.77;;;10.50;;
73130;SDS011;64204;13.766;100.702;2023-12-14T13:52:21;20.05;;;10.93;;
73130;SDS011;64204;13.766;100.702;2023-12-14T13:54:51;21.50;;;12.50;;
73130;SDS011;64204;13.766;100.702;2023-12-14T13:57:18;20.85;;;11.23;;
73130;SDS011;64204;13.766;100.702;2023-12-14T13:59:46;23.00;;;13.10;;
73130;SDS011;64204;13.766;100.702;2023-12-14T14:02:13;27.90;;;13.43;;
73130;SDS011;64204;13.766;100.702;2023-12-14T14:04:40;26.15;;;12.13;;
73130;SDS011;64204;13.766;100.702;2023-12-14T14:07:06;21.90;;;11.77;;
73130;SDS011;64204;13.766;100.702;2023-12-14T14:09:33;19.15;;;10.50;;
73130;SDS011;64204;13.766;100.702;2023-12-14T14:12:00;17.98;;;10.20;;
73130;SDS011;64204;13.766;100.702;2023-12-14T14:14:27;22.63;;;11.75;;
73130;SDS011;64204;13.766;100.702;2023-12-14T14:16:57;19.00;;;11.20;;
73130;SDS011;64204;13.766;100.702;2023-12-14T14:19:23;21.90;;;12.50;;
73130;SDS011;64204;13.766;100.702;2023-12-14T14:21:50;20.08;;;12.32;;
73130;SDS011;64204;13.766;100.702;2023-12-14T14:24:16;18.35;;;10.40;;